createdAt,value
2022-08-29T00:01:59.551Z,100870.63
2022-08-29T00:07:07.677Z,100788.66
2022-08-29T00:12:19.624Z,100793.03
2022-08-29T00:17:38.764Z,100774.13
2022-08-29T00:22:43.307Z,100766.22
2022-08-29T00:27:49.698Z,100789.84
2022-08-29T00:32:53.049Z,100771.97
2022-08-29T00:38:28.019Z,100831.19
2022-08-29T00:43:30.380Z,100778.94
2022-08-29T00:48:37.957Z,100768.78
2022-08-29T00:53:45.481Z,100803.38
2022-08-29T00:58:46.018Z,100794.31
2022-08-29T01:03:46.053Z,100796.00
2022-08-29T01:08:43.726Z,100827.22
2022-08-29T02:15:35.749Z,100878.41
2022-08-29T02:20:42.900Z,100868.03
2022-08-29T02:25:46.589Z,100878.81
2022-08-29T02:30:46.773Z,100852.25
2022-08-29T02:35:48.239Z,100854.44
2022-08-29T02:40:47.086Z,100877.28
2022-08-29T02:45:46.585Z,100853.09
2022-08-29T02:50:47.616Z,100818.50
2022-08-29T02:55:52.793Z,100819.19
2022-08-29T03:00:54.609Z,100824.56
2022-08-29T03:05:55.814Z,100875.28
2022-08-29T03:10:53.084Z,100832.03
2022-08-29T03:15:51.190Z,100943.78
2022-08-29T03:20:48.361Z,100887.66
2022-08-29T03:25:47.024Z,100883.13
2022-08-29T03:30:50.499Z,100886.69
2022-08-29T03:35:57.568Z,100910.88
2022-08-29T03:40:55.653Z,100914.59
2022-08-29T03:45:55.863Z,100907.72
2022-08-29T03:51:43.964Z,100966.72
2022-08-29T03:56:45.845Z,100921.66
2022-08-29T04:01:57.463Z,100909.75
2022-08-29T04:06:56.454Z,100900.66
2022-08-29T04:12:02.751Z,100899.97
2022-08-29T04:17:13.025Z,100973.63
2022-08-29T04:22:24.214Z,100964.63
2022-08-29T04:27:25.543Z,100888.97
2022-08-29T04:32:28.252Z,100910.78
2022-08-29T04:43:52.967Z,100884.31
2022-08-29T04:49:07.960Z,100965.28
2022-08-29T04:54:24.674Z,100902.06
2022-08-29T04:59:31.480Z,100909.50
2022-08-29T05:04:35.925Z,100922.69
2022-08-29T05:10:00.825Z,100919.38
2022-08-29T05:22:29.946Z,100917.38
2022-08-29T05:27:24.313Z,100915.41
2022-08-29T05:38:29.273Z,100910.38
2022-08-29T05:44:06.889Z,100968.75
2022-08-29T05:55:51.859Z,100949.72
2022-08-29T06:02:20.778Z,100947.34
2022-08-29T06:14:07.563Z,100989.53
2022-08-29T06:33:10.980Z,100994.03
2022-08-29T12:10:56.095Z,100848.72
2022-08-29T12:15:54.857Z,100845.13
2022-08-29T12:20:58.103Z,100854.44
2022-08-29T12:26:21.636Z,100885.84
2022-08-29T12:32:02.184Z,100787.19
2022-08-29T12:37:30.233Z,100837.44
2022-08-29T12:42:37.365Z,100832.50
2022-08-29T12:47:45.291Z,100840.34
2022-08-29T12:52:58.494Z,100784.91
2022-08-29T12:57:57.515Z,100803.78
2022-08-29T13:03:02.304Z,100822.06
2022-08-29T13:14:28.782Z,100840.63
2022-08-29T13:19:26.048Z,100835.81
2022-08-29T13:24:23.407Z,100765.69
2022-08-29T13:29:29.131Z,100845.03
2022-08-29T13:34:52.699Z,100738.47
2022-08-29T13:40:28.983Z,100780.91
2022-08-29T13:45:29.444Z,100766.09
2022-08-29T13:50:35.757Z,100803.84
2022-08-29T13:55:36.803Z,100721.16
2022-08-29T14:00:35.847Z,100779.41
2022-08-29T14:05:47.832Z,100810.88
2022-08-29T14:10:47.074Z,100722.13
2022-08-29T14:15:57.608Z,100772.63
2022-08-29T14:20:57.281Z,100795.91
2022-08-29T14:25:57.424Z,100734.84
2022-08-29T14:30:55.309Z,100795.16
2022-08-29T14:35:53.227Z,100746.41
2022-08-29T14:40:50.643Z,100712.53
2022-08-29T14:45:47.736Z,100749.19
2022-08-29T14:50:58.974Z,100748.50
2022-08-29T14:55:59.247Z,100768.72
2022-08-29T15:01:01.287Z,100748.56
2022-08-29T15:11:35.671Z,100764.38
2022-08-29T15:16:33.069Z,100691.66
2022-08-29T15:21:44.427Z,100771.19
2022-08-29T15:26:43.852Z,100770.47
2022-08-29T15:31:47.123Z,100659.53
2022-08-29T15:36:48.272Z,100757.31
2022-08-29T15:41:54.387Z,100688.75
2022-08-29T15:46:53.864Z,100757.31
2022-08-29T16:11:09.543Z,100692.16
2022-08-29T16:16:12.225Z,100728.22
2022-08-29T16:21:17.271Z,100780.13
2022-08-29T16:26:52.909Z,100783.13
2022-08-29T16:31:58.342Z,100785.97
2022-08-29T16:36:57.673Z,100704.34
2022-08-29T16:42:13.320Z,100723.84
2022-08-29T16:47:16.533Z,100749.69
2022-08-29T16:52:16.654Z,100741.47
2022-08-29T16:57:15.738Z,100800.34
2022-08-29T17:02:33.975Z,100704.47
2022-08-29T17:07:34.341Z,100764.97
2022-08-29T17:12:31.976Z,100797.75
2022-08-29T17:17:29.314Z,100816.84
2022-08-29T17:22:26.491Z,100787.50
2022-08-29T17:27:36.238Z,100736.06
2022-08-29T17:32:35.231Z,100791.13
2022-08-29T17:38:08.615Z,100833.28
2022-08-29T17:43:08.964Z,100842.34
2022-08-29T17:48:06.307Z,100818.56
2022-08-29T17:53:27.566Z,100741.59
2022-08-29T17:59:07.339Z,100795.03
2022-08-29T18:04:13.757Z,100756.03
2022-08-29T18:09:12.052Z,100759.97
2022-08-29T18:14:11.882Z,100752.25
2022-08-29T18:19:12.142Z,100832.03
2022-08-29T18:24:13.487Z,100844.06
2022-08-29T18:29:13.617Z,100849.50
2022-08-29T18:34:29.028Z,100873.75
2022-08-29T18:39:26.523Z,100837.19
2022-08-29T18:44:36.477Z,100868.91
2022-08-29T18:49:54.418Z,100792.22
2022-08-29T18:54:54.972Z,100807.88
2022-08-29T18:59:54.431Z,100847.56
2022-08-29T19:04:52.262Z,100820.13
2022-08-29T19:09:49.619Z,100789.22
2022-08-29T19:14:46.843Z,100800.88
2022-08-29T19:20:07.491Z,100882.78
2022-08-29T19:25:09.015Z,100772.78
2022-08-29T19:30:08.043Z,100888.13
2022-08-29T19:35:45.290Z,100878.06
2022-08-29T19:40:43.833Z,100901.00
2022-08-29T19:45:50.131Z,100885.66
2022-08-29T19:50:51.164Z,100897.75
2022-08-29T19:56:46.595Z,100910.97
2022-08-29T20:01:57.442Z,100809.34
2022-08-29T20:07:01.482Z,100882.34
2022-08-29T20:12:00.552Z,100859.56
2022-08-29T20:17:04.949Z,100810.25
2022-08-29T20:22:08.941Z,100861.06
2022-08-29T20:27:07.849Z,100816.44
2022-08-29T20:32:06.594Z,100883.34
2022-08-29T20:37:12.442Z,100867.16
2022-08-29T20:42:15.055Z,100838.09
2022-08-29T20:47:25.660Z,100893.91
2022-08-29T20:52:23.892Z,100788.88
2022-08-29T20:57:22.096Z,100860.34
2022-08-29T21:02:19.227Z,100883.06
2022-08-29T21:07:17.231Z,100861.69
2022-08-29T21:12:15.361Z,100885.44
2022-08-29T21:17:14.473Z,100849.94
2022-08-29T21:22:24.820Z,100834.00
2022-08-29T21:27:25.418Z,100904.22
2022-08-29T21:32:23.452Z,100908.38
2022-08-29T21:37:20.832Z,100887.81
